Time;durP1;ratioP1;P1;durP2;ratioP2;P2;SDS_P1;SDS_P2;PMS_P1;PMS_P2;Temp;Humidity;BMP_temperature;BMP_pressure;BME280_temperature;BME280_humidity;BME280_pressure;Samples;Min_cycle;Max_cycle;Signal;HPM_P1;HPM_P2
2022/12/12 00:01:51;;;;;;;;;;;2.90;95.40;;;;;;5068815;28;20027;-71
2022/12/12 00:04:16;;;;;;;;;;;2.90;95.40;;;;;;5068731;28;19920;-72
2022/12/12 00:06:42;;;;;;;;;;;2.90;95.40;;;;;;5087225;28;19982;-71
2022/12/12 00:09:08;;;;;;;;;;;2.90;95.40;;;;;;5094740;28;20295;-71
2022/12/12 00:11:34;;;;;;;;;;;2.90;95.40;;;;;;5090713;28;20047;-71
2022/12/12 00:13:59;;;;;;;;;;;2.90;95.40;;;;;;5091576;28;19921;-71
2022/12/12 00:16:25;;;;;;;;;;;2.90;95.40;;;;;;5068498;28;20549;-71
2022/12/12 00:18:50;;;;;;;;;;;2.90;95.40;;;;;;5068541;28;19916;-71
2022/12/12 00:21:18;;;;;;;;;;;2.90;95.40;;;;;;5068396;28;19913;-71
2022/12/12 00:23:44;;;;;;;;;;;2.90;95.40;;;;;;5088209;28;20631;-71
2022/12/12 00:26:16;;;;;;;;;;;2.90;95.30;;;;;;5109079;28;19919;-71
2022/12/12 00:28:42;;;;;;;;;;;2.90;95.40;;;;;;5107958;28;19912;-71
2022/12/12 00:31:07;;;;;;;;;;;2.90;95.40;;;;;;5101515;28;19919;-71
2022/12/12 00:33:33;;;;;;;;;;;2.90;95.40;;;;;;5087967;28;20018;-71
2022/12/12 00:35:58;;;;;;;;;;;2.90;95.40;;;;;;5088132;28;19912;-71
2022/12/12 00:38:24;;;;;;;;;;;2.90;95.40;;;;;;5102525;28;19926;-72
2022/12/12 00:40:53;;;;;;;;;;;2.90;95.30;;;;;;5108662;28;19912;-71
2022/12/12 00:43:19;;;;;;;;;;;2.90;95.40;;;;;;5102952;28;20484;-71
2022/12/12 00:45:44;;;;;;;;;;;2.90;95.30;;;;;;5067927;28;19923;-72
2022/12/12 00:48:10;;;;;;;;;;;2.90;95.40;;;;;;5068036;28;19919;-72
2022/12/12 00:50:35;;;;;;;;;;;2.90;95.40;;;;;;5068168;28;20327;-72
2022/12/12 00:53:01;;;;;;;;;;;2.90;95.40;;;;;;5085459;28;19922;-71
2022/12/12 00:55:27;;;;;;;;;;;2.90;95.40;;;;;;5090211;28;20288;-71
2022/12/12 00:57:52;;;;;;;;;;;2.90;95.40;;;;;;5108311;28;19919;-71
2022/12/12 01:00:19;;;;;;;;;;;2.90;95.40;;;;;;5106684;28;19912;-72
2022/12/12 01:02:44;;;;;;;;;;;2.90;95.40;;;;;;5108386;28;19920;-71
2022/12/12 01:05:10;;;;;;;;;;;2.90;95.40;;;;;;5073883;28;19919;-71
2022/12/12 01:07:36;;;;;;;;;;;2.90;95.40;;;;;;5108281;28;19946;-72
2022/12/12 01:10:01;;;;;;;;;;;2.90;95.40;;;;;;5107313;28;20478;-72
2022/12/12 01:12:26;;;;;;;;;;;2.90;95.40;;;;;;5107974;28;19984;-71
2022/12/12 01:14:52;;;;;;;;;;;2.90;95.40;;;;;;5076218;28;19981;-71
2022/12/12 01:17:17;;;;;;;;;;;2.90;95.40;;;;;;5067369;28;19913;-71
2022/12/12 01:19:43;;;;;;;;;;;2.90;95.40;;;;;;5076666;28;19916;-71
2022/12/12 01:22:08;;;;;;;;;;;2.90;95.40;;;;;;5107274;28;19916;-72
2022/12/12 01:24:34;;;;;;;;;;;2.90;95.40;;;;;;5107504;28;19916;-71
2022/12/12 01:27:00;;;;;;;;;;;2.90;95.40;;;;;;5107780;28;19933;-71
2022/12/12 01:29:26;;;;;;;;;;;2.90;95.40;;;;;;5107775;28;19912;-71
2022/12/12 01:31:51;;;;;;;;;;;2.90;95.40;;;;;;5094357;28;19965;-71
2022/12/12 01:34:17;;;;;;;;;;;2.90;95.40;;;;;;5095175;28;19915;-72
2022/12/12 01:36:42;;;;;;;;;;;2.90;95.40;;;;;;5089301;28;20020;-71
2022/12/12 01:39:08;;;;;;;;;;;2.90;95.40;;;;;;5087033;28;19916;-71
2022/12/12 01:41:33;;;;;;;;;;;2.90;95.40;;;;;;5087235;28;19912;-71
2022/12/12 01:44:00;;;;;;;;;;;2.90;95.40;;;;;;5086964;28;19972;-71
2022/12/12 01:46:32;;;;;;;;;;;2.90;95.40;;;;;;5087399;28;19923;-71
2022/12/12 01:48:59;;;;;;;;;;;2.90;95.40;;;;;;5081351;28;19912;-71
2022/12/12 01:51:26;;;;;;;;;;;2.90;95.40;;;;;;5088794;28;19919;-71
2022/12/12 01:53:55;;;;;;;;;;;2.90;95.40;;;;;;5107449;28;19912;-71
2022/12/12 01:56:20;;;;;;;;;;;2.90;95.40;;;;;;5107626;28;19911;-72
2022/12/12 01:58:48;;;;;;;;;;;2.90;95.40;;;;;;5107439;28;20365;-71
2022/12/12 02:01:14;;;;;;;;;;;2.90;95.40;;;;;;5106570;28;20562;-71
2022/12/12 02:03:40;;;;;;;;;;;2.90;95.40;;;;;;5089773;28;19918;-71
2022/12/12 02:06:07;;;;;;;;;;;2.90;95.40;;;;;;5086783;28;19916;-71
2022/12/12 02:08:33;;;;;;;;;;;2.90;95.40;;;;;;5086854;28;19912;-71
2022/12/12 02:10:59;;;;;;;;;;;2.90;95.40;;;;;;5086829;28;19965;-71
2022/12/12 02:13:26;;;;;;;;;;;2.90;95.40;;;;;;5087017;28;20023;-71
2022/12/12 02:15:55;;;;;;;;;;;2.90;95.40;;;;;;5087913;28;19965;-71
2022/12/12 02:18:26;;;;;;;;;;;2.90;95.40;;;;;;5106066;28;20379;-71
2022/12/12 02:21:09;;;;;;;;;;;2.90;95.40;;;;;;5105675;28;19980;-72
2022/12/12 02:23:55;;;;;;;;;;;2.90;95.40;;;;;;5107333;28;19915;-71
2022/12/12 02:26:44;;;;;;;;;;;2.90;95.40;;;;;;5088954;28;20426;-71
2022/12/12 02:29:24;;;;;;;;;;;2.90;95.40;;;;;;5044868;28;19948;-71
2022/12/12 02:32:03;;;;;;;;;;;2.90;95.40;;;;;;5078961;28;19923;-71
2022/12/12 02:34:41;;;;;;;;;;;2.90;95.40;;;;;;5086430;28;19912;-72
2022/12/12 02:37:10;;;;;;;;;;;2.90;95.40;;;;;;5066027;28;19913;-71
2022/12/12 02:39:38;;;;;;;;;;;2.90;95.40;;;;;;5065895;28;19928;-71
2022/12/12 02:42:13;;;;;;;;;;;2.90;95.40;;;;;;5066687;28;19912;-71
2022/12/12 02:44:42;;;;;;;;;;;2.90;95.40;;;;;;5078428;28;19919;-71
2022/12/12 02:47:30;;;;;;;;;;;2.90;95.50;;;;;;5066482;28;20062;-71
2022/12/12 02:50:01;;;;;;;;;;;2.90;95.50;;;;;;5066203;28;20003;-72
2022/12/12 02:52:27;;;;;;;;;;;2.90;95.50;;;;;;5069192;28;19952;-72
2022/12/12 02:54:52;;;;;;;;;;;2.90;95.50;;;;;;5070196;28;19943;-71
2022/12/12 02:57:20;;;;;;;;;;;2.90;95.50;;;;;;5070802;28;20023;-71
2022/12/12 02:59:53;;;;;;;;;;;2.90;95.40;;;;;;5098212;28;19919;-71
2022/12/12 03:02:31;;;;;;;;;;;2.90;95.50;;;;;;5109938;28;19911;-71
2022/12/12 03:07:56;;;;;;;;;;;2.90;95.50;;;;;;5090221;28;19920;-71
2022/12/12 03:10:31;;;;;;;;;;;2.90;95.50;;;;;;5088872;28;19918;-71
2022/12/12 03:13:05;;;;;;;;;;;2.80;95.40;;;;;;5095149;28;20033;-71
2022/12/12 03:15:46;;;;;;;;;;;2.80;95.40;;;;;;5080773;28;20457;-71
2022/12/12 03:18:21;;;;;;;;;;;2.80;95.40;;;;;;5089880;28;19916;-71
2022/12/12 03:20:46;;;;;;;;;;;2.80;95.40;;;;;;5089866;28;20035;-71
2022/12/12 03:23:17;;;;;;;;;;;2.80;95.50;;;;;;5102580;28;20451;-71
2022/12/12 03:25:48;;;;;;;;;;;2.80;95.50;;;;;;5110095;28;19912;-71
2022/12/12 03:28:16;;;;;;;;;;;2.80;95.40;;;;;;5109500;28;19951;-71
2022/12/12 03:30:44;;;;;;;;;;;2.80;95.50;;;;;;5106400;28;20421;-71
2022/12/12 03:33:09;;;;;;;;;;;2.80;95.50;;;;;;5089533;28;19965;-71
2022/12/12 03:35:38;;;;;;;;;;;2.90;95.50;;;;;;5086805;28;20017;-72
2022/12/12 03:38:07;;;;;;;;;;;2.80;95.50;;;;;;5082495;28;19921;-72
2022/12/12 03:40:38;;;;;;;;;;;2.80;95.50;;;;;;5086416;28;19985;-71
2022/12/12 03:43:22;;;;;;;;;;;2.80;95.50;;;;;;5071520;28;19923;-72
2022/12/12 03:45:51;;;;;;;;;;;2.90;95.50;;;;;;5093147;28;19955;-72
2022/12/12 03:48:29;;;;;;;;;;;2.80;95.50;;;;;;5089163;28;19962;-71
2022/12/12 03:50:59;;;;;;;;;;;2.80;95.40;;;;;;5088943;28;19916;-71
2022/12/12 03:53:34;;;;;;;;;;;2.80;95.40;;;;;;5089203;28;20359;-72
2022/12/12 03:56:03;;;;;;;;;;;2.80;95.40;;;;;;5088852;28;19912;-71
2022/12/12 03:58:32;;;;;;;;;;;2.80;95.40;;;;;;5087717;28;19923;-72
2022/12/12 04:00:59;;;;;;;;;;;2.80;95.40;;;;;;5109406;28;19916;-71
2022/12/12 04:03:47;;;;;;;;;;;2.80;95.40;;;;;;5109256;28;19988;-71
2022/12/12 04:06:28;;;;;;;;;;;2.80;95.40;;;;;;5090477;28;19919;-71
2022/12/12 04:14:57;;;;;;;;;;;2.80;95.50;;;;;;5088783;28;19926;-71
2022/12/12 04:17:27;;;;;;;;;;;2.80;95.50;;;;;;5088888;28;19912;-71
2022/12/12 04:28:33;;;;;;;;;;;2.80;95.50;;;;;;5076756;28;19923;-72
2022/12/12 04:31:01;;;;;;;;;;;2.80;95.50;;;;;;5081841;28;20616;-71
2022/12/12 04:33:29;;;;;;;;;;;2.80;95.50;;;;;;5086155;28;19912;-72
2022/12/12 04:35:56;;;;;;;;;;;2.80;95.50;;;;;;5088152;28;19997;-71
2022/12/12 04:38:22;;;;;;;;;;;2.80;95.50;;;;;;5088072;28;20006;-71
2022/12/12 04:40:50;;;;;;;;;;;2.80;95.50;;;;;;5095941;28;19909;-71
2022/12/12 04:43:24;;;;;;;;;;;2.80;95.50;;;;;;5101750;28;20000;-72
2022/12/12 04:45:57;;;;;;;;;;;2.80;95.50;;;;;;5093760;28;20523;-71
2022/12/12 04:48:46;;;;;;;;;;;2.80;95.50;;;;;;5088552;28;20418;-72
2022/12/12 04:51:15;;;;;;;;;;;2.80;95.50;;;;;;5079590;28;20348;-71
2022/12/12 04:53:44;;;;;;;;;;;2.80;95.50;;;;;;5088048;28;19920;-72
2022/12/12 04:56:12;;;;;;;;;;;2.80;95.50;;;;;;5106220;28;19915;-72
2022/12/12 04:58:39;;;;;;;;;;;2.80;95.50;;;;;;5108192;28;19943;-71
2022/12/12 05:01:10;;;;;;;;;;;2.80;95.50;;;;;;5108124;28;19919;-72
2022/12/12 05:03:48;;;;;;;;;;;2.80;95.50;;;;;;5108377;28;19915;-71
2022/12/12 05:06:15;;;;;;;;;;;2.80;95.50;;;;;;5080682;28;19908;-72
2022/12/12 05:08:42;;;;;;;;;;;2.80;95.50;;;;;;5092512;28;19916;-72
2022/12/12 05:11:08;;;;;;;;;;;2.80;95.50;;;;;;5090710;28;19944;-72
2022/12/12 05:13:37;;;;;;;;;;;2.80;95.50;;;;;;5087487;28;19958;-71
2022/12/12 05:16:08;;;;;;;;;;;2.80;95.60;;;;;;5087896;28;20368;-72
2022/12/12 05:18:34;;;;;;;;;;;2.80;95.50;;;;;;5087790;28;20325;-72
2022/12/12 05:20:59;;;;;;;;;;;2.70;95.50;;;;;;5087252;28;19958;-72
2022/12/12 05:23:25;;;;;;;;;;;2.70;95.50;;;;;;5078793;28;19927;-71
2022/12/12 05:25:50;;;;;;;;;;;2.70;95.50;;;;;;5107863;28;19912;-71
2022/12/12 05:28:16;;;;;;;;;;;2.80;95.50;;;;;;5107554;28;19918;-72
2022/12/12 05:30:41;;;;;;;;;;;2.70;95.50;;;;;;5100688;28;19912;-72
2022/12/12 05:33:07;;;;;;;;;;;2.70;95.50;;;;;;5082401;28;19919;-72
2022/12/12 05:35:32;;;;;;;;;;;2.70;95.50;;;;;;5086909;28;19912;-72
2022/12/12 05:38:00;;;;;;;;;;;2.70;95.50;;;;;;5100548;28;19916;-71
2022/12/12 05:40:25;;;;;;;;;;;2.70;95.50;;;;;;5088750;28;20338;-72
2022/12/12 05:42:50;;;;;;;;;;;2.70;95.50;;;;;;5089537;28;19941;-71
2022/12/12 05:45:16;;;;;;;;;;;2.70;95.50;;;;;;5068783;28;19960;-72
2022/12/12 05:47:41;;;;;;;;;;;2.60;95.50;;;;;;5066892;28;19912;-72
2022/12/12 05:50:07;;;;;;;;;;;2.60;95.50;;;;;;5066216;28;19928;-72
2022/12/12 05:52:33;;;;;;;;;;;2.60;95.50;;;;;;5101164;28;19993;-72
2022/12/12 05:54:58;;;;;;;;;;;2.70;95.60;;;;;;5107245;28;19990;-72
2022/12/12 05:57:24;;;;;;;;;;;2.60;95.60;;;;;;5107376;28;19920;-72
2022/12/12 05:59:49;;;;;;;;;;;2.60;95.60;;;;;;5106854;28;19915;-72
2022/12/12 06:02:15;;;;;;;;;;;2.60;95.50;;;;;;5069521;28;19973;-72
2022/12/12 06:04:41;;;;;;;;;;;2.60;95.60;;;;;;5086279;28;20269;-72
2022/12/12 06:07:07;;;;;;;;;;;2.60;95.60;;;;;;5086484;28;19912;-72
2022/12/12 06:09:32;;;;;;;;;;;2.60;95.60;;;;;;5067968;28;19943;-72
2022/12/12 06:11:57;;;;;;;;;;;2.60;95.60;;;;;;5087028;28;19912;-72
2022/12/12 06:14:24;;;;;;;;;;;2.60;95.60;;;;;;5086410;28;20344;-72
2022/12/12 06:16:49;;;;;;;;;;;2.60;95.60;;;;;;5066946;28;19992;-72
2022/12/12 06:19:16;;;;;;;;;;;2.60;95.60;;;;;;5066762;28;20007;-72
2022/12/12 06:21:42;;;;;;;;;;;2.60;95.60;;;;;;5048325;28;19912;-71
2022/12/12 06:24:07;;;;;;;;;;;2.60;95.50;;;;;;5066725;28;19919;-72
2022/12/12 06:26:33;;;;;;;;;;;2.60;95.60;;;;;;5068850;28;20365;-72
2022/12/12 06:28:58;;;;;;;;;;;2.50;95.60;;;;;;5082943;28;19935;-72
2022/12/12 06:31:24;;;;;;;;;;;2.50;95.60;;;;;;5101801;28;19912;-72
2022/12/12 06:33:50;;;;;;;;;;;2.50;95.60;;;;;;5090387;28;20281;-72
2022/12/12 06:36:25;;;;;;;;;;;2.50;95.60;;;;;;5090775;28;19973;-71
2022/12/12 06:38:52;;;;;;;;;;;2.50;95.60;;;;;;5073916;28;19916;-72
2022/12/12 06:41:18;;;;;;;;;;;2.50;95.60;;;;;;5090508;28;19908;-72
2022/12/12 06:43:44;;;;;;;;;;;2.50;95.60;;;;;;5070811;28;20252;-71
2022/12/12 06:46:13;;;;;;;;;;;2.50;95.60;;;;;;5052267;28;20321;-72
2022/12/12 06:48:39;;;;;;;;;;;2.50;95.60;;;;;;5070322;28;19912;-71
2022/12/12 06:51:05;;;;;;;;;;;2.40;95.60;;;;;;5070379;28;19912;-72
2022/12/12 06:53:31;;;;;;;;;;;2.40;95.60;;;;;;5052204;28;19919;-72
2022/12/12 06:55:56;;;;;;;;;;;2.40;95.60;;;;;;5070385;28;19999;-73
2022/12/12 06:58:22;;;;;;;;;;;2.40;95.60;;;;;;5100775;28;19923;-72
2022/12/12 07:00:50;;;;;;;;;;;2.40;95.60;;;;;;5110594;28;19908;-72
2022/12/12 07:03:16;;;;;;;;;;;2.40;95.60;;;;;;5110510;28;19912;-72
2022/12/12 07:05:42;;;;;;;;;;;2.40;95.60;;;;;;5110694;28;19965;-72
2022/12/12 07:08:08;;;;;;;;;;;2.40;95.60;;;;;;5089606;28;19908;-72
2022/12/12 07:10:34;;;;;;;;;;;2.30;95.60;;;;;;5089952;28;19912;-72
2022/12/12 07:13:00;;;;;;;;;;;2.30;95.60;;;;;;5107546;28;19930;-72
2022/12/12 07:15:25;;;;;;;;;;;2.30;95.60;;;;;;5070916;28;20296;-72
2022/12/12 07:17:52;;;;;;;;;;;2.30;95.60;;;;;;5089222;28;19912;-72
2022/12/12 07:20:18;;;;;;;;;;;2.30;95.60;;;;;;5088593;28;19966;-72
2022/12/12 07:22:43;;;;;;;;;;;2.30;95.70;;;;;;5088955;28;19955;-72
2022/12/12 07:25:09;;;;;;;;;;;2.20;95.60;;;;;;5090456;28;19965;-72
2022/12/12 07:27:35;;;;;;;;;;;2.20;95.60;;;;;;5109179;28;20031;-72
2022/12/12 07:30:00;;;;;;;;;;;2.20;95.60;;;;;;5108951;28;19985;-72
2022/12/12 07:32:26;;;;;;;;;;;2.20;95.60;;;;;;5082871;28;19912;-72
2022/12/12 07:34:51;;;;;;;;;;;2.20;95.60;;;;;;5095638;28;20653;-72
2022/12/12 07:37:17;;;;;;;;;;;2.20;95.60;;;;;;5108527;28;19912;-72
2022/12/12 07:39:42;;;;;;;;;;;2.10;95.60;;;;;;5067757;28;19970;-73
2022/12/12 07:42:08;;;;;;;;;;;2.20;95.60;;;;;;5068703;28;19920;-72
2022/12/12 07:44:33;;;;;;;;;;;2.10;95.60;;;;;;5082393;28;20590;-72
2022/12/12 07:46:59;;;;;;;;;;;2.10;95.60;;;;;;5089105;28;19912;-72
2022/12/12 07:49:25;;;;;;;;;;;2.10;95.60;;;;;;5099363;28;19924;-72
2022/12/12 07:51:50;;;;;;;;;;;2.10;95.60;;;;;;5109634;28;19915;-72
2022/12/12 07:54:16;;;;;;;;;;;2.10;95.70;;;;;;5109519;28;19938;-72
2022/12/12 07:56:41;;;;;;;;;;;2.10;95.60;;;;;;5109723;28;19980;-72
2022/12/12 07:59:07;;;;;;;;;;;2.00;95.60;;;;;;5109171;28;19915;-72
2022/12/12 08:01:32;;;;;;;;;;;2.10;95.60;;;;;;5109386;28;19911;-72
2022/12/12 08:03:58;;;;;;;;;;;2.10;95.60;;;;;;5096086;28;19965;-73
2022/12/12 08:06:24;;;;;;;;;;;2.10;95.60;;;;;;5089369;28;20606;-72
2022/12/12 08:08:50;;;;;;;;;;;2.00;95.60;;;;;;5088986;28;19913;-73
2022/12/12 08:11:17;;;;;;;;;;;2.00;95.60;;;;;;5088837;28;20292;-72
2022/12/12 08:13:43;;;;;;;;;;;2.00;95.60;;;;;;5070520;28;19920;-72
2022/12/12 08:16:12;;;;;;;;;;;2.00;95.60;;;;;;5088687;28;19912;-73
2022/12/12 08:18:38;;;;;;;;;;;2.00;95.60;;;;;;5106008;28;19955;-72
2022/12/12 08:21:07;;;;;;;;;;;2.00;95.60;;;;;;5109126;28;20654;-73
2022/12/12 08:23:33;;;;;;;;;;;2.00;95.60;;;;;;5109168;28;19911;-72
2022/12/12 08:26:02;;;;;;;;;;;2.00;95.60;;;;;;5109222;28;19918;-72
2022/12/12 08:28:27;;;;;;;;;;;2.00;95.60;;;;;;5103990;28;20655;-73
2022/12/12 08:30:53;;;;;;;;;;;2.00;95.60;;;;;;5086346;28;19944;-72
2022/12/12 08:33:18;;;;;;;;;;;1.90;95.80;;;;;;5090819;28;19912;-73
2022/12/12 08:35:44;;;;;;;;;;;2.00;95.60;;;;;;5088481;28;19985;-73
2022/12/12 08:38:09;;;;;;;;;;;1.90;95.60;;;;;;5087949;28;20015;-72
2022/12/12 08:40:35;;;;;;;;;;;2.00;95.50;;;;;;5088137;28;19912;-72
2022/12/12 08:43:00;;;;;;;;;;;2.00;95.50;;;;;;5088168;28;19908;-72
2022/12/12 08:45:26;;;;;;;;;;;1.90;95.50;;;;;;5092269;28;19959;-73
2022/12/12 08:47:51;;;;;;;;;;;1.90;95.50;;;;;;5107702;28;19981;-72
2022/12/12 08:50:17;;;;;;;;;;;1.90;95.50;;;;;;5107769;28;19908;-72
2022/12/12 08:52:43;;;;;;;;;;;2.00;95.60;;;;;;5108983;28;19915;-72
2022/12/12 08:55:09;;;;;;;;;;;1.90;95.50;;;;;;5108895;28;19914;-72
2022/12/12 08:57:35;;;;;;;;;;;1.90;95.50;;;;;;5108616;28;20023;-72
2022/12/12 09:00:01;;;;;;;;;;;1.90;95.50;;;;;;5099742;28;20306;-72
2022/12/12 09:02:26;;;;;;;;;;;1.90;95.50;;;;;;5088026;28;19912;-72
2022/12/12 09:04:52;;;;;;;;;;;2.00;95.60;;;;;;5087655;28;19912;-73
2022/12/12 09:07:17;;;;;;;;;;;2.00;95.50;;;;;;5088007;28;19908;-72
2022/12/12 09:09:43;;;;;;;;;;;1.90;95.50;;;;;;5087657;28;20369;-72
2022/12/12 09:12:08;;;;;;;;;;;1.90;95.50;;;;;;5087829;28;20012;-72
2022/12/12 09:14:34;;;;;;;;;;;2.00;95.50;;;;;;5093113;28;20010;-72
2022/12/12 09:16:59;;;;;;;;;;;1.90;95.50;;;;;;5067613;28;19913;-72
2022/12/12 09:19:25;;;;;;;;;;;2.00;95.50;;;;;;5067135;28;19970;-72
2022/12/12 09:21:50;;;;;;;;;;;2.00;95.50;;;;;;5067409;28;19920;-72
2022/12/12 09:24:16;;;;;;;;;;;2.00;95.50;;;;;;5067784;28;19944;-72
2022/12/12 09:26:41;;;;;;;;;;;2.00;95.70;;;;;;5067744;28;19912;-72
2022/12/12 09:29:07;;;;;;;;;;;2.00;95.50;;;;;;5097583;28;19926;-72
2022/12/12 09:31:32;;;;;;;;;;;2.00;95.40;;;;;;5089157;28;19909;-73
2022/12/12 09:33:57;;;;;;;;;;;2.10;95.50;;;;;;5087299;28;20349;-72
2022/12/12 09:36:23;;;;;;;;;;;2.00;95.40;;;;;;5083504;28;19916;-72
2022/12/12 09:38:49;;;;;;;;;;;2.10;95.50;;;;;;5074179;28;21019;-72
2022/12/12 09:41:16;;;;;;;;;;;2.10;95.40;;;;;;5083711;28;19965;-72
2022/12/12 09:43:44;;;;;;;;;;;2.10;95.40;;;;;;5087118;28;20635;-72
2022/12/12 09:46:17;;;;;;;;;;;2.10;95.40;;;;;;5083460;28;19919;-72
2022/12/12 09:48:45;;;;;;;;;;;2.10;95.40;;;;;;5107518;28;19962;-72
2022/12/12 09:51:11;;;;;;;;;;;2.10;95.40;;;;;;5107313;28;20026;-72
2022/12/12 09:53:37;;;;;;;;;;;2.10;95.40;;;;;;5089275;28;20003;-72
2022/12/12 09:56:09;;;;;;;;;;;2.20;95.40;;;;;;5107387;28;20353;-72
2022/12/12 09:58:40;;;;;;;;;;;2.20;95.30;;;;;;5092108;28;19965;-71
2022/12/12 10:01:28;;;;;;;;;;;2.20;95.30;;;;;;5087626;28;20570;-72
2022/12/12 10:04:05;;;;;;;;;;;2.30;95.30;;;;;;5086970;28;19912;-72
2022/12/12 10:06:34;;;;;;;;;;;2.30;95.30;;;;;;5080814;28;19915;-72
2022/12/12 10:09:17;;;;;;;;;;;2.30;95.20;;;;;;5086805;28;19947;-72
2022/12/12 10:11:49;;;;;;;;;;;2.30;95.20;;;;;;5066841;28;19913;-72
2022/12/12 10:14:33;;;;;;;;;;;2.40;95.20;;;;;;5077184;28;19973;-72
2022/12/12 10:16:59;;;;;;;;;;;2.40;95.20;;;;;;5086861;28;20556;-72
2022/12/12 10:19:26;;;;;;;;;;;2.30;95.20;;;;;;5087089;28;19924;-71
2022/12/12 10:21:53;;;;;;;;;;;2.40;95.20;;;;;;5107083;28;20493;-72
2022/12/12 10:24:26;;;;;;;;;;;2.40;95.20;;;;;;5106959;28;19911;-72
2022/12/12 10:26:53;;;;;;;;;;;2.40;95.20;;;;;;5107087;28;19973;-72
2022/12/12 10:29:20;;;;;;;;;;;2.40;95.20;;;;;;5098973;28;20433;-72
2022/12/12 10:32:05;;;;;;;;;;;2.40;95.20;;;;;;5078775;28;19916;-72
2022/12/12 10:34:37;;;;;;;;;;;2.40;95.20;;;;;;5079994;28;19916;-72
2022/12/12 10:37:15;;;;;;;;;;;2.50;95.20;;;;;;5090626;28;20607;-72
2022/12/12 10:39:59;;;;;;;;;;;2.50;95.10;;;;;;5086189;28;19920;-72
2022/12/12 10:42:34;;;;;;;;;;;2.50;95.10;;;;;;5086585;28;19916;-71
2022/12/12 10:45:12;;;;;;;;;;;2.50;95.10;;;;;;5086620;28;20384;-72
2022/12/12 10:47:38;;;;;;;;;;;2.50;95.10;;;;;;5086562;28;19912;-72
2022/12/12 10:50:09;;;;;;;;;;;2.50;95.10;;;;;;5086307;28;19912;-72
2022/12/12 10:52:36;;;;;;;;;;;2.60;95.10;;;;;;5087784;28;19970;-72
2022/12/12 10:55:07;;;;;;;;;;;2.60;95.10;;;;;;5086482;28;20369;-72
2022/12/12 10:57:33;;;;;;;;;;;2.60;95.10;;;;;;5086689;28;19930;-72
2022/12/12 10:59:59;;;;;;;;;;;2.60;95.10;;;;;;5086325;28;19925;-72
2022/12/12 11:02:33;;;;;;;;;;;2.60;95.20;;;;;;5087146;28;20280;-72
2022/12/12 11:05:01;;;;;;;;;;;2.60;95.20;;;;;;5086551;28;19919;-73
2022/12/12 11:07:27;;;;;;;;;;;2.60;95.10;;;;;;5087635;28;19998;-72
2022/12/12 11:09:54;;;;;;;;;;;2.60;95.20;;;;;;5085901;28;19999;-72
2022/12/12 11:12:20;;;;;;;;;;;2.60;95.10;;;;;;5087647;28;19912;-72
2022/12/12 11:14:49;;;;;;;;;;;2.60;95.10;;;;;;5090047;28;19930;-72
2022/12/12 11:17:29;;;;;;;;;;;2.60;95.10;;;;;;5071710;28;19916;-72
2022/12/12 11:19:56;;;;;;;;;;;2.60;95.10;;;;;;5089510;28;20065;-72
2022/12/12 11:22:21;;;;;;;;;;;2.60;95.10;;;;;;5090035;28;19912;-72
2022/12/12 11:24:48;;;;;;;;;;;2.60;95.10;;;;;;5097083;28;19908;-72
2022/12/12 11:27:33;;;;;;;;;;;2.60;95.10;;;;;;5098079;28;19916;-71
2022/12/12 11:30:00;;;;;;;;;;;2.60;95.10;;;;;;5089937;28;20412;-72
2022/12/12 11:32:28;;;;;;;;;;;2.60;95.20;;;;;;5089542;28;19912;-72
2022/12/12 11:34:56;;;;;;;;;;;2.60;95.20;;;;;;5089555;28;19947;-71
2022/12/12 11:37:22;;;;;;;;;;;2.60;95.20;;;;;;5089564;28;19908;-72
2022/12/12 11:39:50;;;;;;;;;;;2.60;95.10;;;;;;5089415;28;19920;-72
2022/12/12 11:42:15;;;;;;;;;;;2.60;95.10;;;;;;5090751;28;19916;-71
2022/12/12 11:44:42;;;;;;;;;;;2.60;95.20;;;;;;5089813;28;20311;-72
2022/12/12 11:47:16;;;;;;;;;;;2.70;95.20;;;;;;5089872;28;19961;-72
2022/12/12 11:49:46;;;;;;;;;;;2.70;95.10;;;;;;5089260;28;19916;-72
2022/12/12 11:52:22;;;;;;;;;;;2.70;95.10;;;;;;5089391;28;20032;-71
2022/12/12 11:54:47;;;;;;;;;;;2.60;95.10;;;;;;5089041;28;20027;-71
2022/12/12 11:57:28;;;;;;;;;;;2.70;95.10;;;;;;5090426;28;20431;-71
2022/12/12 12:00:14;;;;;;;;;;;2.70;95.10;;;;;;5088879;28;20326;-72
2022/12/12 12:02:58;;;;;;;;;;;2.70;95.10;;;;;;5089408;28;19913;-72
2022/12/12 12:05:30;;;;;;;;;;;2.70;95.10;;;;;;5088944;28;20046;-72
2022/12/12 12:07:56;;;;;;;;;;;2.70;95.10;;;;;;5071276;28;19915;-72
2022/12/12 12:10:21;;;;;;;;;;;2.70;95.00;;;;;;5088509;28;19912;-71
2022/12/12 12:12:53;;;;;;;;;;;2.70;95.00;;;;;;5089218;28;19916;-72
2022/12/12 12:15:31;;;;;;;;;;;2.80;95.00;;;;;;5069657;28;19924;-72
2022/12/12 12:17:56;;;;;;;;;;;2.80;95.00;;;;;;5068707;28;19912;-71
2022/12/12 12:20:31;;;;;;;;;;;2.80;94.90;;;;;;5079515;28;19920;-71
2022/12/12 12:23:02;;;;;;;;;;;2.80;95.00;;;;;;5090649;28;20619;-72
2022/12/12 12:25:27;;;;;;;;;;;2.80;94.90;;;;;;5109265;28;19947;-72
2022/12/12 12:28:02;;;;;;;;;;;2.80;95.00;;;;;;5109215;28;19958;-72
2022/12/12 12:30:33;;;;;;;;;;;2.80;94.90;;;;;;5103466;28;20471;-72
2022/12/12 12:33:01;;;;;;;;;;;2.80;94.90;;;;;;5082840;28;20026;-71
2022/12/12 12:35:29;;;;;;;;;;;2.80;94.90;;;;;;5088362;28;20697;-71
2022/12/12 12:38:13;;;;;;;;;;;2.80;94.90;;;;;;5088354;28;19948;-72
2022/12/12 12:40:57;;;;;;;;;;;2.80;95.00;;;;;;5069655;28;19920;-71
2022/12/12 12:43:22;;;;;;;;;;;2.80;95.00;;;;;;5070388;28;19916;-71
2022/12/12 12:45:48;;;;;;;;;;;2.80;94.90;;;;;;5088267;28;19912;-71
2022/12/12 12:48:32;;;;;;;;;;;2.80;94.90;;;;;;5071243;28;19923;-72
2022/12/12 12:51:03;;;;;;;;;;;2.90;94.90;;;;;;5104468;28;19939;-71
2022/12/12 12:53:29;;;;;;;;;;;2.90;94.90;;;;;;5108351;28;20352;-71
2022/12/12 12:55:57;;;;;;;;;;;2.90;94.90;;;;;;5108151;28;19933;-71
2022/12/12 12:58:25;;;;;;;;;;;2.90;94.90;;;;;;5108502;28;19915;-71
2022/12/12 13:01:22;;;;;;;;;;;2.90;94.90;;;;;;5108402;28;19934;-71
2022/12/12 13:03:50;;;;;;;;;;;3.00;94.90;;;;;;5050131;28;19908;-71
2022/12/12 13:06:34;;;;;;;;;;;3.00;94.90;;;;;;5093867;28;20274;-71
2022/12/12 13:09:03;;;;;;;;;;;3.00;94.80;;;;;;5108105;28;19916;-71
2022/12/12 13:11:34;;;;;;;;;;;3.00;94.80;;;;;;5108674;28;19919;-72
2022/12/12 13:14:06;;;;;;;;;;;3.00;94.80;;;;;;5100750;28;19969;-71
2022/12/12 13:16:31;;;;;;;;;;;3.00;94.80;;;;;;5087619;28;19977;-71
2022/12/12 13:19:07;;;;;;;;;;;3.00;94.80;;;;;;5087704;28;19916;-71
2022/12/12 13:21:35;;;;;;;;;;;3.00;94.80;;;;;;5088575;28;19912;-71
2022/12/12 13:24:35;;;;;;;;;;;3.00;94.80;;;;;;5086793;28;21259;-71
2022/12/12 13:27:25;;;;;;;;;;;3.00;94.80;;;;;;5052873;28;20003;-72
2022/12/12 13:29:54;;;;;;;;;;;3.00;94.80;;;;;;5079122;28;19912;-72
2022/12/12 13:32:20;;;;;;;;;;;3.00;94.90;;;;;;5079872;28;19916;-71
2022/12/12 13:34:57;;;;;;;;;;;3.00;94.90;;;;;;5086814;28;19923;-71
2022/12/12 13:37:22;;;;;;;;;;;3.00;95.20;;;;;;5087633;28;19915;-71
2022/12/12 13:40:03;;;;;;;;;;;3.00;94.90;;;;;;5086056;28;20387;-71
2022/12/12 13:43:01;;;;;;;;;;;3.00;94.90;;;;;;5086519;28;19936;-71
2022/12/12 13:45:38;;;;;;;;;;;3.00;94.90;;;;;;5042524;28;20045;-71
2022/12/12 13:48:05;;;;;;;;;;;3.00;94.90;;;;;;5066477;28;20388;-71
2022/12/12 13:50:31;;;;;;;;;;;3.00;94.90;;;;;;5066385;28;20525;-71
2022/12/12 13:53:05;;;;;;;;;;;3.00;95.00;;;;;;5066405;28;19987;-72
2022/12/12 13:55:31;;;;;;;;;;;3.00;95.00;;;;;;5096117;28;19923;-71
2022/12/12 13:58:01;;;;;;;;;;;3.00;95.00;;;;;;5106021;28;20280;-71
2022/12/12 14:00:27;;;;;;;;;;;3.00;95.00;;;;;;5106244;28;19915;-71
2022/12/12 14:03:13;;;;;;;;;;;3.00;95.00;;;;;;5106505;28;19912;-71
2022/12/12 14:05:49;;;;;;;;;;;3.00;95.00;;;;;;5100764;28;19908;-71
2022/12/12 14:08:14;;;;;;;;;;;2.90;95.00;;;;;;5086059;28;19919;-71
2022/12/12 14:10:42;;;;;;;;;;;2.90;95.00;;;;;;5086006;28;19916;-71
2022/12/12 14:13:15;;;;;;;;;;;2.90;95.00;;;;;;5086324;28;20000;-71
2022/12/12 14:15:41;;;;;;;;;;;2.90;95.00;;;;;;5086164;28;19916;-72
2022/12/12 14:18:16;;;;;;;;;;;2.90;95.00;;;;;;5086334;28;20018;-72
2022/12/12 14:20:42;;;;;;;;;;;2.90;95.10;;;;;;5085671;28;20528;-72
2022/12/12 14:23:43;;;;;;;;;;;2.90;95.10;;;;;;5086723;28;19918;-72
2022/12/12 14:26:20;;;;;;;;;;;2.90;95.10;;;;;;5007444;28;19920;-71
2022/12/12 14:28:46;;;;;;;;;;;2.90;95.10;;;;;;5092333;28;19907;-72
2022/12/12 14:31:15;;;;;;;;;;;2.80;95.10;;;;;;5091592;28;19922;-71
2022/12/12 14:33:58;;;;;;;;;;;2.80;95.10;;;;;;5078553;28;19920;-71
2022/12/12 14:36:23;;;;;;;;;;;2.80;95.10;;;;;;5086812;28;19966;-72
2022/12/12 14:38:49;;;;;;;;;;;2.80;95.10;;;;;;5086560;28;19945;-71
2022/12/12 14:41:17;;;;;;;;;;;2.80;95.40;;;;;;5084959;28;20003;-71
2022/12/12 14:43:50;;;;;;;;;;;2.80;95.10;;;;;;5099379;28;19911;-72
2022/12/12 14:46:16;;;;;;;;;;;2.80;95.10;;;;;;5072710;28;20003;-72
2022/12/12 14:48:43;;;;;;;;;;;2.70;95.10;;;;;;5070233;28;19912;-72
2022/12/12 14:51:10;;;;;;;;;;;2.70;95.10;;;;;;5070122;28;19912;-71
2022/12/12 14:53:36;;;;;;;;;;;2.70;95.10;;;;;;5070508;28;19919;-72
2022/12/12 14:56:07;;;;;;;;;;;2.70;95.10;;;;;;5070068;28;20265;-72
2022/12/12 14:58:35;;;;;;;;;;;2.70;95.10;;;;;;5070179;28;20324;-71
2022/12/12 15:01:01;;;;;;;;;;;2.70;95.10;;;;;;5090979;28;19912;-72